createdAt,value
2022-10-05T00:00:44.152Z,21.26
2022-10-05T00:01:48.435Z,21.23
2022-10-05T00:02:52.864Z,21.21
2022-10-05T00:03:57.170Z,21.25
2022-10-05T00:05:01.703Z,21.28
2022-10-05T00:06:06.165Z,21.32
2022-10-05T00:07:10.375Z,21.3
2022-10-05T00:08:14.590Z,21.29
2022-10-05T00:09:18.804Z,21.29
2022-10-05T00:10:23.123Z,21.27
2022-10-05T00:11:27.365Z,21.27
2022-10-05T00:12:31.577Z,21.25
2022-10-05T00:13:35.815Z,21.25
2022-10-05T00:14:40.018Z,21.24
2022-10-05T00:15:44.228Z,21.22
2022-10-05T00:16:48.935Z,21.25
2022-10-05T00:17:54.658Z,21.26
2022-10-05T00:18:58.904Z,21.28
2022-10-05T00:20:03.175Z,21.3
2022-10-05T00:21:07.388Z,21.26
2022-10-05T00:22:11.594Z,21.3
2022-10-05T00:23:15.905Z,21.26
2022-10-05T00:24:20.142Z,21.25
2022-10-05T00:25:24.374Z,21.25
2022-10-05T00:26:30.886Z,21.22
2022-10-05T00:27:35.126Z,21.21
2022-10-05T00:28:39.333Z,21.2
2022-10-05T00:29:43.556Z,21.21
2022-10-05T00:30:47.821Z,21.23
2022-10-05T00:31:52.140Z,21.23
2022-10-05T00:32:59.596Z,21.26
2022-10-05T00:34:04.041Z,21.25
2022-10-05T00:35:08.296Z,21.24
2022-10-05T00:36:12.566Z,21.22
2022-10-05T00:37:16.756Z,21.2
2022-10-05T00:38:20.999Z,21.21
2022-10-05T00:39:25.261Z,21.21
2022-10-05T00:40:29.484Z,21.22
2022-10-05T00:41:33.745Z,21.21
2022-10-05T00:42:37.964Z,21.23
2022-10-05T00:43:42.138Z,21.22
2022-10-05T00:44:46.367Z,21.2
2022-10-05T00:45:50.629Z,21.21
2022-10-05T00:46:55.083Z,21.21
2022-10-05T00:47:59.272Z,21.22
2022-10-05T00:49:03.507Z,21.22
2022-10-05T00:50:07.779Z,21.24
2022-10-05T00:51:11.970Z,21.21
2022-10-05T00:52:16.189Z,21.23
2022-10-05T00:53:20.381Z,21.22
2022-10-05T00:54:24.642Z,21.18
2022-10-05T00:55:28.898Z,21.17
2022-10-05T00:56:33.135Z,21.18
2022-10-05T00:57:37.353Z,21.2
2022-10-05T00:58:41.576Z,21.2
2022-10-05T00:59:45.834Z,21.19
2022-10-05T01:00:50.148Z,21.19
2022-10-05T01:01:54.573Z,21.18
2022-10-05T01:02:58.975Z,21.15
2022-10-05T01:04:03.192Z,21.17
2022-10-05T01:05:07.405Z,21.14
2022-10-05T01:06:11.635Z,21.16
2022-10-05T01:07:15.824Z,21.17
2022-10-05T01:08:20.052Z,21.17
2022-10-05T01:09:24.270Z,21.16
2022-10-05T01:10:28.488Z,21.17
2022-10-05T01:11:32.710Z,21.18
2022-10-05T01:12:36.970Z,21.18
2022-10-05T01:13:41.226Z,21.17
2022-10-05T01:14:45.432Z,21.18
2022-10-05T01:15:49.655Z,21.18
2022-10-05T01:16:53.890Z,21.18
2022-10-05T01:17:58.319Z,21.15
2022-10-05T01:19:02.554Z,21.14
2022-10-05T01:20:06.785Z,21.15
2022-10-05T01:21:10.997Z,21.15
2022-10-05T01:22:15.311Z,21.15
2022-10-05T01:23:19.540Z,21.15
2022-10-05T01:24:23.732Z,21.14
2022-10-05T01:25:27.992Z,21.13
2022-10-05T01:26:32.417Z,21.11
2022-10-05T01:27:36.635Z,21.11
2022-10-05T01:28:40.847Z,21.12
2022-10-05T01:29:45.097Z,21.11
2022-10-05T01:30:49.340Z,21.16
2022-10-05T01:31:53.662Z,21.14
2022-10-05T01:32:58.147Z,21.15
2022-10-05T01:34:02.360Z,21.15
2022-10-05T01:35:13.937Z,21.13
2022-10-05T01:36:18.167Z,21.12
2022-10-05T01:37:22.384Z,21.12
2022-10-05T01:38:26.627Z,21.12
2022-10-05T01:39:30.841Z,21.13
2022-10-05T01:40:35.094Z,21.12
2022-10-05T01:41:39.326Z,21.13
2022-10-05T01:42:43.561Z,21.11
2022-10-05T01:43:47.912Z,21.1
2022-10-05T01:44:52.157Z,21.12
2022-10-05T01:45:56.441Z,21.12
2022-10-05T01:47:00.894Z,21.15
2022-10-05T01:48:05.130Z,21.15
2022-10-05T01:49:09.499Z,21.14
2022-10-05T01:50:13.703Z,21.12
2022-10-05T01:51:17.932Z,21.13
2022-10-05T01:52:22.141Z,21.13
2022-10-05T01:53:26.312Z,21.13
2022-10-05T01:54:30.546Z,21.15
2022-10-05T01:55:34.776Z,21.17
2022-10-05T01:56:39.007Z,21.15
2022-10-05T01:57:43.221Z,21.13
2022-10-05T01:58:47.455Z,21.13
2022-10-05T01:59:51.714Z,21.15
2022-10-05T02:00:56.015Z,21.15
2022-10-05T02:02:00.453Z,21.14
2022-10-05T02:03:04.872Z,21.15
2022-10-05T02:04:09.097Z,21.15
2022-10-05T02:05:13.391Z,21.11
2022-10-05T02:06:17.590Z,21.12
2022-10-05T02:07:21.785Z,21.09
2022-10-05T02:08:25.997Z,21.08
2022-10-05T02:09:30.215Z,21.12
2022-10-05T02:10:34.453Z,21.1
2022-10-05T02:11:38.689Z,21.12
2022-10-05T02:12:42.899Z,21.12
2022-10-05T02:13:47.118Z,21.12
2022-10-05T02:14:51.327Z,21.11
2022-10-05T02:15:55.654Z,21.12
2022-10-05T02:17:00.100Z,21.13
2022-10-05T02:18:04.317Z,21.13
2022-10-05T02:19:08.582Z,21.12
2022-10-05T02:20:12.783Z,21.11
2022-10-05T02:21:17.013Z,21.12
2022-10-05T02:22:21.258Z,21.11
2022-10-05T02:23:25.507Z,21.13
2022-10-05T02:24:29.851Z,21.12
2022-10-05T02:25:34.081Z,21.13
2022-10-05T02:26:38.333Z,21.12
2022-10-05T02:27:42.558Z,21.13
2022-10-05T02:28:46.754Z,21.12
2022-10-05T02:29:50.976Z,21.1
2022-10-05T02:30:55.186Z,21.11
2022-10-05T02:31:59.422Z,21.11
2022-10-05T02:33:03.661Z,21.11
2022-10-05T02:34:07.939Z,21.1
2022-10-05T02:35:12.143Z,21.09
2022-10-05T02:36:16.388Z,21.08
2022-10-05T02:37:20.600Z,21.09
2022-10-05T02:38:24.819Z,21.08
2022-10-05T02:39:29.031Z,21.09
2022-10-05T02:40:33.294Z,21.1
2022-10-05T02:41:37.536Z,21.07
2022-10-05T02:42:41.737Z,21.1
2022-10-05T02:43:45.973Z,21.11
2022-10-05T02:44:50.197Z,21.11
2022-10-05T02:45:54.453Z,21.12
2022-10-05T02:46:59.014Z,21.1
2022-10-05T02:48:03.408Z,21.09
2022-10-05T02:49:07.685Z,21.11
2022-10-05T02:50:11.912Z,21.1
2022-10-05T02:51:16.138Z,21.09
2022-10-05T02:52:20.370Z,21.08
2022-10-05T02:53:24.609Z,21.07
2022-10-05T02:54:28.844Z,21.08
2022-10-05T02:55:33.105Z,21.09
2022-10-05T02:56:37.426Z,21.08
2022-10-05T02:57:41.668Z,21.07
2022-10-05T02:58:45.884Z,21.08
2022-10-05T02:59:50.120Z,21.09
2022-10-05T03:00:54.389Z,21.05
2022-10-05T03:01:58.964Z,21.06
2022-10-05T03:03:03.425Z,21.03
2022-10-05T03:04:07.609Z,21.05
2022-10-05T03:05:12.896Z,21.03
2022-10-05T03:06:17.138Z,21.02
2022-10-05T03:07:21.361Z,21.02
2022-10-05T03:08:25.648Z,21.06
2022-10-05T03:09:29.858Z,21.08
2022-10-05T03:10:34.060Z,21.08
2022-10-05T03:11:38.345Z,21.05
2022-10-05T03:12:42.577Z,21.05
2022-10-05T03:13:46.787Z,21.06
2022-10-05T03:14:51.040Z,21.06
2022-10-05T03:15:55.363Z,21.07
2022-10-05T03:16:59.708Z,21.06
2022-10-05T03:18:03.925Z,21.06
2022-10-05T03:19:08.245Z,21.06
2022-10-05T03:20:12.584Z,21.03
2022-10-05T03:21:16.830Z,21.01
2022-10-05T03:22:21.047Z,21.03
2022-10-05T03:23:26.291Z,21.01
2022-10-05T03:24:30.591Z,21.02
2022-10-05T03:25:34.854Z,21.01
2022-10-05T03:26:39.072Z,21.03
2022-10-05T03:27:43.305Z,21.02
2022-10-05T03:28:47.562Z,21.03
2022-10-05T03:29:51.781Z,21.03
2022-10-05T03:30:56.018Z,21.01
2022-10-05T03:32:00.441Z,21.01
2022-10-05T03:33:04.719Z,21.03
2022-10-05T03:34:09.013Z,21.06
2022-10-05T03:35:13.229Z,21.06
2022-10-05T03:36:17.446Z,21.05
2022-10-05T03:37:21.649Z,21.06
2022-10-05T03:38:25.934Z,21.06
2022-10-05T03:39:30.172Z,21.05
2022-10-05T03:40:34.397Z,21.03
2022-10-05T03:41:38.597Z,21.05
2022-10-05T03:42:42.861Z,21.04
2022-10-05T03:43:47.129Z,21.04
2022-10-05T03:44:51.361Z,21.03
2022-10-05T03:45:55.624Z,21.02
2022-10-05T03:46:59.994Z,21.02
2022-10-05T03:48:04.219Z,21.03
2022-10-05T03:49:08.489Z,21.04
2022-10-05T03:50:12.715Z,21.04
2022-10-05T03:51:16.900Z,21.04
2022-10-05T03:52:21.199Z,21.06
2022-10-05T03:53:25.444Z,21.06
2022-10-05T03:54:29.678Z,21.07
2022-10-05T03:55:33.890Z,21.06
2022-10-05T03:56:38.248Z,21.06
2022-10-05T03:57:42.693Z,21.06
2022-10-05T03:58:46.931Z,21.06
2022-10-05T03:59:51.187Z,21.05
2022-10-05T04:00:55.417Z,21.04
2022-10-05T04:01:59.696Z,21.04
2022-10-05T04:03:04.149Z,21.05
2022-10-05T04:04:08.388Z,21.07
2022-10-05T04:05:12.607Z,21.1
2022-10-05T04:06:16.862Z,21.21
2022-10-05T04:07:23.402Z,21.23
2022-10-05T04:08:27.760Z,21.21
2022-10-05T04:09:31.995Z,21.17
2022-10-05T04:10:36.212Z,21.14
2022-10-05T04:11:40.427Z,21.11
2022-10-05T04:12:44.663Z,21.08
2022-10-05T04:13:48.861Z,21.06
2022-10-05T04:14:53.086Z,21.07
2022-10-05T04:15:57.375Z,21.06
2022-10-05T04:17:01.912Z,21.06
2022-10-05T04:18:06.140Z,21.06
2022-10-05T04:19:10.375Z,21.05
2022-10-05T04:20:14.616Z,21.03
2022-10-05T04:21:22.770Z,21.04
2022-10-05T04:22:27.779Z,21.09
2022-10-05T04:23:32.203Z,21.15
2022-10-05T04:24:36.482Z,21.17
2022-10-05T04:25:40.704Z,21.2
2022-10-05T04:26:45.090Z,21.28
2022-10-05T04:27:50.339Z,21.38
2022-10-05T04:28:54.751Z,21.45
2022-10-05T04:29:58.995Z,21.54
2022-10-05T04:31:03.299Z,21.6
2022-10-05T04:32:07.797Z,21.67
2022-10-05T04:33:12.011Z,21.7
2022-10-05T04:34:16.234Z,21.74
2022-10-05T04:35:20.516Z,21.8
2022-10-05T04:36:24.740Z,21.81
2022-10-05T04:37:28.967Z,21.84
2022-10-05T04:38:33.241Z,21.86
2022-10-05T04:39:37.471Z,21.88
2022-10-05T04:40:41.676Z,21.89
2022-10-05T04:41:45.906Z,21.9
2022-10-05T04:42:50.120Z,21.91
2022-10-05T04:43:54.317Z,21.93
2022-10-05T04:44:59.404Z,21.95
2022-10-05T04:46:03.718Z,21.97
2022-10-05T04:47:08.030Z,21.98
2022-10-05T04:48:12.453Z,21.98
2022-10-05T04:49:16.647Z,21.98
2022-10-05T04:50:20.880Z,21.99
2022-10-05T04:51:27.370Z,21.99
2022-10-05T04:52:31.574Z,21.97
2022-10-05T04:53:35.869Z,21.96
2022-10-05T04:54:41.088Z,21.96
2022-10-05T04:55:45.305Z,21.94
2022-10-05T04:56:49.837Z,21.91
2022-10-05T04:57:54.247Z,21.91
2022-10-05T04:58:58.473Z,21.88
2022-10-05T05:00:02.783Z,21.88
2022-10-05T05:01:07.216Z,21.85
2022-10-05T05:02:11.763Z,21.83
2022-10-05T05:03:15.986Z,21.81
2022-10-05T05:04:20.173Z,21.79
2022-10-05T05:05:24.486Z,21.78
2022-10-05T05:06:28.710Z,21.76
2022-10-05T05:07:32.915Z,21.73
2022-10-05T05:08:37.154Z,21.71
2022-10-05T05:09:41.380Z,21.7
2022-10-05T05:10:45.637Z,21.69
2022-10-05T05:11:49.859Z,21.66
2022-10-05T05:12:54.121Z,21.65
2022-10-05T05:13:58.339Z,21.64
2022-10-05T05:15:02.550Z,21.62
2022-10-05T05:16:06.838Z,21.6
2022-10-05T05:17:13.218Z,21.58
2022-10-05T05:18:17.689Z,21.56
2022-10-05T05:19:21.908Z,21.55
2022-10-05T05:20:26.134Z,21.54
2022-10-05T05:21:30.367Z,21.51
2022-10-05T05:22:34.586Z,21.49
2022-10-05T05:23:38.844Z,21.46
2022-10-05T05:24:43.052Z,21.47
2022-10-05T05:25:47.292Z,21.45
2022-10-05T05:26:51.812Z,21.44
2022-10-05T05:27:56.315Z,21.45
2022-10-05T05:29:00.721Z,21.45
2022-10-05T05:30:04.943Z,21.45
2022-10-05T05:31:09.286Z,21.41
2022-10-05T05:32:13.723Z,21.41
2022-10-05T05:33:17.959Z,21.39
2022-10-05T05:34:22.320Z,21.38
2022-10-05T05:35:26.556Z,21.37
2022-10-05T05:36:30.777Z,21.37
2022-10-05T05:37:34.986Z,21.38
2022-10-05T05:38:39.203Z,21.34
2022-10-05T05:39:43.465Z,21.32
2022-10-05T05:40:47.705Z,21.33
2022-10-05T05:41:51.960Z,21.32
2022-10-05T05:42:56.201Z,21.34
2022-10-05T05:44:00.408Z,21.32
2022-10-05T05:45:04.683Z,21.33
2022-10-05T05:46:08.973Z,21.33
2022-10-05T05:47:13.670Z,21.29
2022-10-05T05:48:18.257Z,21.31
2022-10-05T05:49:22.520Z,21.3
2022-10-05T05:50:26.733Z,21.28
2022-10-05T05:51:31.224Z,21.3
2022-10-05T05:52:35.450Z,21.31
2022-10-05T05:53:39.682Z,21.31
2022-10-05T05:54:43.893Z,21.3
2022-10-05T05:55:48.120Z,21.28
2022-10-05T05:56:52.409Z,21.29
2022-10-05T05:57:56.643Z,21.28
2022-10-05T05:59:00.852Z,21.27
2022-10-05T06:00:05.083Z,21.28
2022-10-05T06:01:20.428Z,21.27
2022-10-05T06:02:37.331Z,21.27
2022-10-05T06:03:42.109Z,21.26
2022-10-05T06:04:46.328Z,21.26
2022-10-05T06:05:50.735Z,21.27
2022-10-05T06:06:54.978Z,21.23
2022-10-05T06:07:59.224Z,21.28
2022-10-05T06:09:03.447Z,21.28
2022-10-05T06:10:07.661Z,21.33
2022-10-05T06:11:11.870Z,21.37
2022-10-05T06:12:16.095Z,21.39
2022-10-05T06:13:20.337Z,21.42
2022-10-05T06:14:24.539Z,21.45
2022-10-05T06:15:28.792Z,21.48
2022-10-05T06:16:33.095Z,21.51
2022-10-05T06:17:39.882Z,21.52
2022-10-05T06:18:44.097Z,21.53
2022-10-05T06:19:48.299Z,21.56
2022-10-05T06:20:52.530Z,21.55
2022-10-05T06:21:56.746Z,21.57
2022-10-05T06:23:01.028Z,21.56
2022-10-05T06:24:05.282Z,21.57
2022-10-05T06:25:09.515Z,21.55
2022-10-05T06:26:14.001Z,21.56
2022-10-05T06:27:18.212Z,21.55
2022-10-05T06:28:22.559Z,21.54
2022-10-05T06:29:26.998Z,21.53
2022-10-05T06:30:32.200Z,21.52
2022-10-05T06:31:37.001Z,21.51
2022-10-05T06:32:41.515Z,21.51
2022-10-05T06:33:45.758Z,21.51
2022-10-05T06:34:49.933Z,21.49
2022-10-05T06:35:54.232Z,21.49
2022-10-05T06:36:58.498Z,21.48
2022-10-05T06:38:02.732Z,21.47
2022-10-05T06:39:06.973Z,21.47
2022-10-05T06:40:11.183Z,21.46
2022-10-05T06:41:15.407Z,21.46
2022-10-05T06:42:19.681Z,21.45
2022-10-05T06:43:23.883Z,21.43
2022-10-05T06:44:28.142Z,21.43
2022-10-05T06:45:32.393Z,21.4
2022-10-05T06:46:36.791Z,21.4
2022-10-05T06:47:41.027Z,21.39
2022-10-05T06:48:45.287Z,21.41
2022-10-05T06:49:49.563Z,21.4
2022-10-05T06:50:53.816Z,21.37
2022-10-05T06:51:58.040Z,21.38
2022-10-05T06:53:02.354Z,21.37
2022-10-05T06:54:06.730Z,21.38
2022-10-05T06:55:14.150Z,21.4
2022-10-05T06:56:18.579Z,21.38
2022-10-05T06:57:22.800Z,21.35
2022-10-05T06:58:27.096Z,21.34
2022-10-05T06:59:31.315Z,21.37
2022-10-05T07:00:35.557Z,21.4
2022-10-05T07:01:39.854Z,21.39
2022-10-05T07:02:44.581Z,21.38
2022-10-05T07:03:48.855Z,21.37
2022-10-05T07:04:53.082Z,21.37
2022-10-05T07:05:57.325Z,21.36
2022-10-05T07:07:01.531Z,21.34
2022-10-05T07:08:05.771Z,21.32
2022-10-05T07:09:09.982Z,21.28
2022-10-05T07:10:14.226Z,21.28
2022-10-05T07:11:18.502Z,21.27
2022-10-05T07:12:22.715Z,21.26
2022-10-05T07:13:26.969Z,21.25
2022-10-05T07:14:31.200Z,21.23
2022-10-05T07:15:35.413Z,21.23
2022-10-05T07:16:39.754Z,21.23
2022-10-05T07:17:44.223Z,21.23
2022-10-05T07:18:48.465Z,21.23
2022-10-05T07:19:52.686Z,21.25
2022-10-05T07:20:56.932Z,21.25
2022-10-05T07:22:01.190Z,21.24
2022-10-05T07:23:05.855Z,21.24
2022-10-05T07:24:10.087Z,21.24
2022-10-05T07:25:14.294Z,21.24
2022-10-05T07:26:18.534Z,21.23
2022-10-05T07:27:22.755Z,21.22
2022-10-05T07:28:26.993Z,21.24
2022-10-05T07:29:31.509Z,21.23
2022-10-05T07:30:35.769Z,21.23
2022-10-05T07:31:40.217Z,21.21
2022-10-05T07:32:44.433Z,21.2
2022-10-05T07:33:48.644Z,21.18
2022-10-05T07:34:52.844Z,21.21
2022-10-05T07:35:57.060Z,21.21
2022-10-05T07:37:01.301Z,21.19
2022-10-05T07:38:05.525Z,21.2
2022-10-05T07:39:09.719Z,21.2
2022-10-05T07:40:13.968Z,21.21
2022-10-05T07:41:18.313Z,21.18
2022-10-05T07:42:22.625Z,21.19
2022-10-05T07:43:32.007Z,21.18
2022-10-05T07:45:05.132Z,21.18
2022-10-05T07:46:09.347Z,21.19
2022-10-05T07:47:13.875Z,21.19
2022-10-05T07:48:18.198Z,21.19
2022-10-05T07:49:22.448Z,21.18
2022-10-05T07:50:26.679Z,21.18
2022-10-05T07:51:30.919Z,21.18
2022-10-05T07:52:35.187Z,21.2
2022-10-05T07:53:39.450Z,21.21
2022-10-05T07:54:43.705Z,21.19
2022-10-05T07:55:47.936Z,21.2
2022-10-05T07:56:52.280Z,21.22
2022-10-05T07:57:56.497Z,21.26
2022-10-05T07:59:00.714Z,21.32
2022-10-05T08:00:04.940Z,21.34
2022-10-05T08:01:09.216Z,21.37
2022-10-05T08:02:13.593Z,21.38
2022-10-05T08:03:18.394Z,21.4
2022-10-05T08:04:22.804Z,21.41
2022-10-05T08:05:28.056Z,21.41
2022-10-05T08:06:32.301Z,21.4
2022-10-05T08:07:36.539Z,21.41
2022-10-05T08:08:40.957Z,21.41
2022-10-05T08:09:45.155Z,21.41
2022-10-05T08:10:49.403Z,21.4
2022-10-05T08:11:53.646Z,21.4
2022-10-05T08:12:57.872Z,21.41
2022-10-05T08:14:02.257Z,21.39
2022-10-05T08:15:06.689Z,21.39
2022-10-05T08:16:10.922Z,21.38
2022-10-05T08:17:15.664Z,21.38
2022-10-05T08:18:19.917Z,21.38
2022-10-05T08:19:24.127Z,21.38
2022-10-05T08:20:30.602Z,21.37
2022-10-05T08:21:34.833Z,21.36
2022-10-05T08:22:39.051Z,21.36
2022-10-05T08:23:43.293Z,21.33
2022-10-05T08:24:47.528Z,21.33
2022-10-05T08:25:51.755Z,21.32
2022-10-05T08:26:55.999Z,21.32
2022-10-05T08:28:00.319Z,21.32
2022-10-05T08:29:04.740Z,21.33
2022-10-05T08:30:16.058Z,21.35
2022-10-05T08:31:20.360Z,21.35
2022-10-05T08:32:24.884Z,21.32
2022-10-05T08:33:29.108Z,21.33
2022-10-05T08:34:33.311Z,21.33
2022-10-05T08:35:37.520Z,21.35
2022-10-05T08:36:41.758Z,21.33
2022-10-05T08:37:45.969Z,21.32
2022-10-05T08:38:50.228Z,21.3
2022-10-05T08:39:54.485Z,21.28
2022-10-05T08:40:58.747Z,21.27
2022-10-05T08:42:02.977Z,21.25
2022-10-05T08:43:07.169Z,21.26
2022-10-05T08:44:11.476Z,21.22
2022-10-05T08:45:15.756Z,21.22
2022-10-05T08:46:20.029Z,21.23
2022-10-05T08:47:24.566Z,21.22
2022-10-05T08:48:28.788Z,21.2
2022-10-05T08:49:35.262Z,21.18
2022-10-05T08:50:39.738Z,21.21
2022-10-05T08:51:44.281Z,21.22
2022-10-05T08:52:49.512Z,21.2
2022-10-05T08:53:53.716Z,21.18
2022-10-05T08:54:57.947Z,21.15
2022-10-05T08:56:02.248Z,21.15
2022-10-05T08:57:06.472Z,21.15
2022-10-05T08:58:10.712Z,21.15
2022-10-05T08:59:14.935Z,21.16
2022-10-05T09:00:19.299Z,21.17
2022-10-05T09:01:23.710Z,21.18
2022-10-05T09:02:28.167Z,21.2
2022-10-05T09:03:34.534Z,21.2
2022-10-05T09:04:38.906Z,21.19
2022-10-05T09:05:43.376Z,21.19
2022-10-05T09:06:47.642Z,21.18
2022-10-05T09:07:51.883Z,21.19
2022-10-05T09:08:56.343Z,21.18
2022-10-05T09:10:01.798Z,21.19
2022-10-05T09:11:06.279Z,21.18
2022-10-05T09:12:10.571Z,21.21
2022-10-05T09:13:14.762Z,21.21
2022-10-05T09:14:18.984Z,21.2
2022-10-05T09:15:26.134Z,21.19
2022-10-05T09:16:30.654Z,21.2
2022-10-05T09:17:39.192Z,21.19
2022-10-05T09:18:43.546Z,21.18
2022-10-05T09:19:47.790Z,21.19
2022-10-05T09:20:52.048Z,21.2
2022-10-05T09:21:56.280Z,21.14
2022-10-05T09:23:00.501Z,21.11
2022-10-05T09:24:04.742Z,21.1
2022-10-05T09:25:08.957Z,21.09
2022-10-05T09:26:13.253Z,21.09
2022-10-05T09:27:17.461Z,21.09
2022-10-05T09:28:21.768Z,21.08
2022-10-05T09:29:26.160Z,21.1
2022-10-05T09:30:30.363Z,21.09
2022-10-05T09:31:34.560Z,21.1
2022-10-05T09:32:38.876Z,21.08
2022-10-05T09:33:43.148Z,21.07
2022-10-05T09:34:47.371Z,21.06
2022-10-05T09:35:51.668Z,21.05
2022-10-05T09:36:55.896Z,21.01
2022-10-05T09:38:00.133Z,20.97
2022-10-05T09:39:04.381Z,20.99
2022-10-05T09:40:08.598Z,20.98
2022-10-05T09:41:12.845Z,20.98
2022-10-05T09:42:17.084Z,20.95
2022-10-05T09:43:21.304Z,20.93
2022-10-05T09:44:25.827Z,20.93
2022-10-05T09:45:30.398Z,20.93
2022-10-05T09:46:34.687Z,20.93
2022-10-05T09:47:39.133Z,20.95
2022-10-05T09:48:43.355Z,20.96
2022-10-05T09:49:47.737Z,20.93
2022-10-05T09:50:51.979Z,20.93
2022-10-05T09:51:56.217Z,20.95
2022-10-05T09:53:00.455Z,20.94
2022-10-05T09:54:04.669Z,20.93
2022-10-05T09:55:08.902Z,20.94
2022-10-05T09:56:13.335Z,20.93
2022-10-05T09:57:17.612Z,20.93
2022-10-05T09:58:21.852Z,20.9
2022-10-05T09:59:26.078Z,20.9
2022-10-05T10:00:30.324Z,20.88
2022-10-05T10:01:34.783Z,20.85
2022-10-05T10:02:39.398Z,20.85
2022-10-05T10:03:44.051Z,20.85
2022-10-05T10:04:48.309Z,20.84
2022-10-05T10:05:52.515Z,20.85
2022-10-05T10:06:56.804Z,20.85
2022-10-05T10:08:01.008Z,20.86
2022-10-05T10:09:05.272Z,20.87
2022-10-05T10:10:09.601Z,20.86
2022-10-05T10:11:13.855Z,20.85
2022-10-05T10:12:18.199Z,20.83
2022-10-05T10:13:22.437Z,20.83
2022-10-05T10:14:26.833Z,20.83
2022-10-05T10:15:31.169Z,20.81
2022-10-05T10:16:35.636Z,20.83
2022-10-05T10:17:39.875Z,20.83
2022-10-05T10:18:44.092Z,20.82
2022-10-05T10:19:48.317Z,20.8
2022-10-05T10:20:52.536Z,20.8
2022-10-05T10:21:56.745Z,20.8
2022-10-05T10:23:01.997Z,20.8
2022-10-05T10:24:06.236Z,20.82
2022-10-05T10:25:10.506Z,20.8
2022-10-05T10:26:14.747Z,20.78
2022-10-05T10:27:18.959Z,20.78
2022-10-05T10:28:23.260Z,20.78
2022-10-05T10:30:32.026Z,20.8
2022-10-05T10:31:40.055Z,20.79
2022-10-05T10:32:44.276Z,20.77
2022-10-05T10:33:48.514Z,20.76
2022-10-05T10:34:52.778Z,20.73
2022-10-05T10:35:56.992Z,20.74
2022-10-05T10:37:09.255Z,20.72
2022-10-05T10:38:13.486Z,20.7
2022-10-05T10:39:17.703Z,20.72
2022-10-05T10:40:21.981Z,20.73
2022-10-05T10:41:26.196Z,20.73
2022-10-05T10:42:30.442Z,20.73
2022-10-05T10:43:34.647Z,20.73
2022-10-05T10:44:38.921Z,20.71
2022-10-05T10:45:43.203Z,20.71
2022-10-05T10:46:47.873Z,20.72
2022-10-05T10:47:53.561Z,20.71
2022-10-05T10:48:57.810Z,20.73
2022-10-05T10:50:02.021Z,20.74
2022-10-05T10:51:06.288Z,20.8
2022-10-05T10:52:10.529Z,20.8
2022-10-05T10:53:14.798Z,20.81
2022-10-05T10:54:19.071Z,20.84
2022-10-05T10:55:23.286Z,20.84
2022-10-05T10:56:27.504Z,20.86
2022-10-05T10:57:31.792Z,20.89
2022-10-05T10:58:36.010Z,20.92
2022-10-05T10:59:40.264Z,20.96
2022-10-05T11:00:44.468Z,20.98
2022-10-05T11:01:48.906Z,20.99
2022-10-05T11:02:54.507Z,21
2022-10-05T11:03:58.934Z,21.01
2022-10-05T11:05:03.207Z,21.03
2022-10-05T11:06:07.443Z,21.03
2022-10-05T11:07:13.918Z,21.02
2022-10-05T11:08:18.183Z,21.04
2022-10-05T11:09:22.402Z,21.03
2022-10-05T11:10:26.602Z,21.04
2022-10-05T11:11:30.829Z,21.06
2022-10-05T11:12:35.085Z,21.07
2022-10-05T11:13:39.331Z,21.07
2022-10-05T11:14:43.540Z,21.06
2022-10-05T11:15:47.863Z,21.05
2022-10-05T11:16:52.604Z,21.03
2022-10-05T11:17:56.822Z,21.03
2022-10-05T11:19:01.043Z,21.03
2022-10-05T11:20:05.643Z,21
2022-10-05T11:21:10.217Z,21.01
2022-10-05T11:22:14.503Z,21.01
2022-10-05T11:23:18.710Z,21
2022-10-05T11:24:22.923Z,20.99
2022-10-05T11:25:27.205Z,20.98
2022-10-05T11:26:31.430Z,20.99
2022-10-05T11:27:35.637Z,21.01
2022-10-05T11:28:39.916Z,20.98
2022-10-05T11:29:44.387Z,20.99
2022-10-05T11:30:48.990Z,21.01
2022-10-05T11:31:55.603Z,21.01
2022-10-05T11:33:00.013Z,21.01
2022-10-05T11:34:04.242Z,21.01
2022-10-05T11:35:08.459Z,20.98
2022-10-05T11:36:12.702Z,21
2022-10-05T11:37:16.935Z,21
2022-10-05T11:38:21.148Z,21
2022-10-05T11:39:25.353Z,21.01
2022-10-05T11:40:29.597Z,21.01
2022-10-05T11:41:33.831Z,21.01
2022-10-05T11:42:40.308Z,21.01
2022-10-05T11:43:44.537Z,20.99
2022-10-05T11:44:48.829Z,20.99
2022-10-05T11:45:53.065Z,21
2022-10-05T11:46:57.278Z,21
2022-10-05T11:48:01.499Z,20.99
2022-10-05T11:49:05.719Z,20.99
2022-10-05T11:50:09.979Z,20.99
2022-10-05T11:51:14.238Z,20.98
2022-10-05T11:52:18.421Z,20.99
2022-10-05T11:53:24.937Z,21
2022-10-05T11:54:29.528Z,20.99
2022-10-05T11:56:00.828Z,20.97
2022-10-05T11:57:05.087Z,20.97
2022-10-05T11:58:09.332Z,20.97
2022-10-05T11:59:13.549Z,20.98
2022-10-05T12:00:18.037Z,20.97
2022-10-05T12:01:22.283Z,20.96
2022-10-05T12:02:26.538Z,20.95
2022-10-05T12:03:31.109Z,20.95
2022-10-05T12:04:35.792Z,20.97
2022-10-05T12:05:39.987Z,20.95
2022-10-05T12:06:44.204Z,20.95
2022-10-05T12:07:48.990Z,20.97
2022-10-05T12:08:53.216Z,20.95
2022-10-05T12:09:57.587Z,20.95
2022-10-05T12:11:01.816Z,20.95
2022-10-05T12:12:06.129Z,20.95
2022-10-05T12:13:10.332Z,20.96
2022-10-05T12:14:14.576Z,20.95
2022-10-05T12:15:18.861Z,20.93
2022-10-05T12:16:23.158Z,20.95
2022-10-05T12:17:27.623Z,20.95
2022-10-05T12:18:31.855Z,20.95
2022-10-05T12:19:36.095Z,20.95
2022-10-05T12:20:40.347Z,20.95
2022-10-05T12:21:44.591Z,20.93
2022-10-05T12:22:48.813Z,20.93
2022-10-05T12:23:53.039Z,20.93
2022-10-05T12:24:57.309Z,20.92
2022-10-05T12:26:01.535Z,20.91
2022-10-05T12:27:05.768Z,20.93
2022-10-05T12:28:10.215Z,20.93
2022-10-05T12:29:14.619Z,20.9
2022-10-05T12:30:18.873Z,20.92
2022-10-05T12:31:23.138Z,20.9
2022-10-05T12:32:27.461Z,20.9
2022-10-05T12:33:31.673Z,20.92
2022-10-05T12:34:35.914Z,20.91
2022-10-05T12:35:48.857Z,20.91
2022-10-05T12:37:08.494Z,20.92
2022-10-05T12:38:12.734Z,20.92
2022-10-05T12:39:16.939Z,20.91
2022-10-05T12:40:21.132Z,20.91
2022-10-05T12:41:25.359Z,20.91
2022-10-05T12:42:32.716Z,20.9
2022-10-05T12:43:44.245Z,20.88
2022-10-05T12:44:48.484Z,20.88
2022-10-05T12:45:52.793Z,20.88
2022-10-05T12:46:57.178Z,20.89
2022-10-05T12:48:01.453Z,20.89
2022-10-05T12:49:05.787Z,20.9
2022-10-05T12:50:10.062Z,20.89
2022-10-05T12:51:14.381Z,20.9
2022-10-05T12:52:18.595Z,20.9
2022-10-05T12:53:22.807Z,20.92
2022-10-05T12:54:27.045Z,20.87
2022-10-05T12:55:31.291Z,20.87
2022-10-05T12:56:35.522Z,20.88
2022-10-05T12:57:39.748Z,20.87
2022-10-05T12:58:44.012Z,20.87
2022-10-05T12:59:48.251Z,20.87
2022-10-05T13:00:52.500Z,20.88
2022-10-05T13:01:56.917Z,20.87
2022-10-05T13:03:01.302Z,20.86
2022-10-05T13:04:05.553Z,20.85
2022-10-05T13:05:10.035Z,20.85
2022-10-05T13:06:14.707Z,20.86
2022-10-05T13:07:19.250Z,20.86
2022-10-05T13:08:23.492Z,20.87
2022-10-05T13:09:27.704Z,20.86
2022-10-05T13:10:31.935Z,20.84
2022-10-05T13:11:36.214Z,20.83
2022-10-05T13:12:40.438Z,20.84
2022-10-05T13:13:44.657Z,20.82
2022-10-05T13:14:49.209Z,20.83
2022-10-05T13:15:53.444Z,20.83
2022-10-05T13:16:58.224Z,20.84
2022-10-05T13:18:02.505Z,20.84
2022-10-05T13:19:06.735Z,20.85
2022-10-05T13:20:10.981Z,20.84
2022-10-05T13:21:15.225Z,20.84
2022-10-05T13:22:19.736Z,20.82
2022-10-05T13:23:24.015Z,20.81
2022-10-05T13:24:28.244Z,20.82
2022-10-05T13:25:32.457Z,20.83
2022-10-05T13:26:36.668Z,20.81
2022-10-05T13:27:40.892Z,20.82
2022-10-05T13:28:45.170Z,20.83
2022-10-05T13:29:53.576Z,20.83
2022-10-05T13:30:58.481Z,20.83
2022-10-05T13:32:02.773Z,20.83
2022-10-05T13:33:07.004Z,20.82
2022-10-05T13:34:11.221Z,20.82
2022-10-05T13:35:15.469Z,20.85
2022-10-05T13:36:19.706Z,20.84
2022-10-05T13:37:23.952Z,20.84
2022-10-05T13:38:28.201Z,20.84
2022-10-05T13:39:32.541Z,20.86
2022-10-05T13:40:36.763Z,20.86
2022-10-05T13:41:41.002Z,20.85
2022-10-05T13:42:45.244Z,20.88
2022-10-05T13:43:49.497Z,20.88
2022-10-05T13:44:53.730Z,20.87
2022-10-05T13:45:57.981Z,20.87
2022-10-05T13:47:02.419Z,20.87
2022-10-05T13:48:06.623Z,20.88
2022-10-05T13:49:10.887Z,20.89
2022-10-05T13:50:15.162Z,20.87
2022-10-05T13:51:19.360Z,20.88
2022-10-05T13:52:23.605Z,20.87
2022-10-05T13:53:27.817Z,20.86
2022-10-05T13:54:32.044Z,20.85
2022-10-05T13:55:36.271Z,20.84